sensor_id;sensor_type;location;lat;lon;timestamp;temperature;humidity
53978;DHT22;39886;47.984;-1.586;2024-02-28T00:02:11;17.40;56.10
53978;DHT22;39886;47.984;-1.586;2024-02-28T00:04:40;17.40;56.20
53978;DHT22;39886;47.984;-1.586;2024-02-28T00:07:07;17.40;56.30
53978;DHT22;39886;47.984;-1.586;2024-02-28T00:09:35;17.30;56.20
53978;DHT22;39886;47.984;-1.586;2024-02-28T00:12:01;17.30;56.30
53978;DHT22;39886;47.984;-1.586;2024-02-28T00:14:27;17.30;56.30
53978;DHT22;39886;47.984;-1.586;2024-02-28T00:16:52;17.40;56.30
53978;DHT22;39886;47.984;-1.586;2024-02-28T00:19:18;17.30;56.30
53978;DHT22;39886;47.984;-1.586;2024-02-28T00:21:45;17.30;56.30
53978;DHT22;39886;47.984;-1.586;2024-02-28T00:24:11;17.30;56.30
53978;DHT22;39886;47.984;-1.586;2024-02-28T00:26:41;17.30;56.50
53978;DHT22;39886;47.984;-1.586;2024-02-28T00:29:07;17.30;56.40
53978;DHT22;39886;47.984;-1.586;2024-02-28T00:31:33;17.30;56.40
53978;DHT22;39886;47.984;-1.586;2024-02-28T00:33:59;17.30;56.50
53978;DHT22;39886;47.984;-1.586;2024-02-28T00:36:25;17.30;56.50
53978;DHT22;39886;47.984;-1.586;2024-02-28T00:38:50;17.30;56.50
53978;DHT22;39886;47.984;-1.586;2024-02-28T00:41:16;17.30;56.50
53978;DHT22;39886;47.984;-1.586;2024-02-28T00:43:42;17.30;56.50
53978;DHT22;39886;47.984;-1.586;2024-02-28T00:46:07;17.30;56.60
53978;DHT22;39886;47.984;-1.586;2024-02-28T00:48:39;17.30;56.60
53978;DHT22;39886;47.984;-1.586;2024-02-28T00:51:05;17.30;56.60
53978;DHT22;39886;47.984;-1.586;2024-02-28T00:53:31;17.30;56.60
53978;DHT22;39886;47.984;-1.586;2024-02-28T00:55:57;17.30;56.70
53978;DHT22;39886;47.984;-1.586;2024-02-28T00:58:23;17.30;56.70
53978;DHT22;39886;47.984;-1.586;2024-02-28T01:00:49;17.30;56.80
53978;DHT22;39886;47.984;-1.586;2024-02-28T01:03:15;17.30;56.80
53978;DHT22;39886;47.984;-1.586;2024-02-28T01:05:41;17.20;56.80
53978;DHT22;39886;47.984;-1.586;2024-02-28T01:08:07;17.20;56.80
53978;DHT22;39886;47.984;-1.586;2024-02-28T01:10:33;17.20;56.80
53978;DHT22;39886;47.984;-1.586;2024-02-28T01:12:59;17.20;56.80
53978;DHT22;39886;47.984;-1.586;2024-02-28T01:15:25;17.20;56.80
53978;DHT22;39886;47.984;-1.586;2024-02-28T01:17:52;17.20;56.80
53978;DHT22;39886;47.984;-1.586;2024-02-28T01:20:17;17.20;56.90
53978;DHT22;39886;47.984;-1.586;2024-02-28T01:22:46;17.20;56.90
53978;DHT22;39886;47.984;-1.586;2024-02-28T01:25:13;17.20;57.00
53978;DHT22;39886;47.984;-1.586;2024-02-28T01:27:38;17.20;56.90
53978;DHT22;39886;47.984;-1.586;2024-02-28T01:30:05;17.20;56.90
53978;DHT22;39886;47.984;-1.586;2024-02-28T01:32:31;17.20;56.90
53978;DHT22;39886;47.984;-1.586;2024-02-28T01:34:57;17.20;57.00
53978;DHT22;39886;47.984;-1.586;2024-02-28T01:37:23;17.20;56.90
53978;DHT22;39886;47.984;-1.586;2024-02-28T01:39:48;17.20;57.00
53978;DHT22;39886;47.984;-1.586;2024-02-28T01:42:14;17.20;57.00
53978;DHT22;39886;47.984;-1.586;2024-02-28T01:44:44;17.20;57.00
53978;DHT22;39886;47.984;-1.586;2024-02-28T01:47:11;17.20;57.10
53978;DHT22;39886;47.984;-1.586;2024-02-28T01:49:37;17.20;57.10
53978;DHT22;39886;47.984;-1.586;2024-02-28T01:52:04;17.20;57.10
53978;DHT22;39886;47.984;-1.586;2024-02-28T01:54:31;17.10;57.10
53978;DHT22;39886;47.984;-1.586;2024-02-28T01:56:57;17.20;57.10
53978;DHT22;39886;47.984;-1.586;2024-02-28T01:59:24;17.20;57.20
53978;DHT22;39886;47.984;-1.586;2024-02-28T02:01:50;17.20;57.20
53978;DHT22;39886;47.984;-1.586;2024-02-28T02:04:16;17.20;57.20
53978;DHT22;39886;47.984;-1.586;2024-02-28T02:06:43;17.10;57.20
53978;DHT22;39886;47.984;-1.586;2024-02-28T02:09:13;17.20;57.20
53978;DHT22;39886;47.984;-1.586;2024-02-28T02:11:39;17.20;57.20
53978;DHT22;39886;47.984;-1.586;2024-02-28T02:14:05;17.20;57.30
53978;DHT22;39886;47.984;-1.586;2024-02-28T02:16:30;17.20;57.30
53978;DHT22;39886;47.984;-1.586;2024-02-28T02:18:56;17.20;57.30
53978;DHT22;39886;47.984;-1.586;2024-02-28T02:21:34;17.20;57.30
53978;DHT22;39886;47.984;-1.586;2024-02-28T02:24:02;17.20;57.30
53978;DHT22;39886;47.984;-1.586;2024-02-28T02:26:28;17.20;57.30
53978;DHT22;39886;47.984;-1.586;2024-02-28T02:28:53;17.20;57.30
53978;DHT22;39886;47.984;-1.586;2024-02-28T02:31:19;17.20;57.40
53978;DHT22;39886;47.984;-1.586;2024-02-28T02:33:45;17.10;57.30
53978;DHT22;39886;47.984;-1.586;2024-02-28T02:36:10;17.10;57.40
53978;DHT22;39886;47.984;-1.586;2024-02-28T02:38:36;17.20;57.40
53978;DHT22;39886;47.984;-1.586;2024-02-28T02:41:02;17.10;57.40
53978;DHT22;39886;47.984;-1.586;2024-02-28T02:43:28;17.20;57.50
53978;DHT22;39886;47.984;-1.586;2024-02-28T02:45:54;17.10;57.40
53978;DHT22;39886;47.984;-1.586;2024-02-28T02:48:20;17.10;57.50
53978;DHT22;39886;47.984;-1.586;2024-02-28T02:50:45;17.10;57.50
53978;DHT22;39886;47.984;-1.586;2024-02-28T02:53:11;17.10;57.50
53978;DHT22;39886;47.984;-1.586;2024-02-28T02:55:37;17.10;57.50
53978;DHT22;39886;47.984;-1.586;2024-02-28T02:58:03;17.10;57.50
53978;DHT22;39886;47.984;-1.586;2024-02-28T03:00:30;17.10;57.50
53978;DHT22;39886;47.984;-1.586;2024-02-28T03:02:56;17.10;57.60
53978;DHT22;39886;47.984;-1.586;2024-02-28T03:05:23;17.10;57.60
53978;DHT22;39886;47.984;-1.586;2024-02-28T03:07:49;17.10;57.50
53978;DHT22;39886;47.984;-1.586;2024-02-28T03:15:45;17.10;57.60
53978;DHT22;39886;47.984;-1.586;2024-02-28T03:18:11;17.10;57.60
53978;DHT22;39886;47.984;-1.586;2024-02-28T03:20:39;17.10;57.60
53978;DHT22;39886;47.984;-1.586;2024-02-28T03:29:02;17.10;57.80
53978;DHT22;39886;47.984;-1.586;2024-02-28T03:31:28;17.10;57.70
53978;DHT22;39886;47.984;-1.586;2024-02-28T03:33:54;17.10;57.80
53978;DHT22;39886;47.984;-1.586;2024-02-28T03:36:20;17.10;57.80
53978;DHT22;39886;47.984;-1.586;2024-02-28T03:38:45;17.10;57.70
53978;DHT22;39886;47.984;-1.586;2024-02-28T03:41:11;17.10;57.80
53978;DHT22;39886;47.984;-1.586;2024-02-28T03:43:37;17.10;57.80
53978;DHT22;39886;47.984;-1.586;2024-02-28T03:46:02;17.10;57.80
53978;DHT22;39886;47.984;-1.586;2024-02-28T03:48:28;17.10;57.90
53978;DHT22;39886;47.984;-1.586;2024-02-28T03:50:54;17.10;57.80
53978;DHT22;39886;47.984;-1.586;2024-02-28T03:53:19;17.10;57.90
53978;DHT22;39886;47.984;-1.586;2024-02-28T03:55:45;17.10;57.90
53978;DHT22;39886;47.984;-1.586;2024-02-28T03:58:11;17.10;57.90
53978;DHT22;39886;47.984;-1.586;2024-02-28T04:00:37;17.10;57.90
53978;DHT22;39886;47.984;-1.586;2024-02-28T04:03:04;17.10;57.90
53978;DHT22;39886;47.984;-1.586;2024-02-28T04:05:30;17.10;57.90
53978;DHT22;39886;47.984;-1.586;2024-02-28T04:07:55;17.10;57.90
53978;DHT22;39886;47.984;-1.586;2024-02-28T04:10:21;17.10;57.90
53978;DHT22;39886;47.984;-1.586;2024-02-28T04:12:47;17.10;58.50
53978;DHT22;39886;47.984;-1.586;2024-02-28T04:15:14;17.30;57.60
53978;DHT22;39886;47.984;-1.586;2024-02-28T04:17:40;17.40;57.30
53978;DHT22;39886;47.984;-1.586;2024-02-28T04:20:12;17.60;56.90
53978;DHT22;39886;47.984;-1.586;2024-02-28T04:22:38;17.70;56.60
53978;DHT22;39886;47.984;-1.586;2024-02-28T04:25:05;17.90;56.40
53978;DHT22;39886;47.984;-1.586;2024-02-28T04:27:31;18.00;56.20
53978;DHT22;39886;47.984;-1.586;2024-02-28T04:29:56;18.10;56.00
53978;DHT22;39886;47.984;-1.586;2024-02-28T04:32:22;18.20;55.80
53978;DHT22;39886;47.984;-1.586;2024-02-28T04:34:48;18.30;55.70
53978;DHT22;39886;47.984;-1.586;2024-02-28T04:37:13;18.40;55.50
53978;DHT22;39886;47.984;-1.586;2024-02-28T04:39:40;18.50;55.40
53978;DHT22;39886;47.984;-1.586;2024-02-28T04:42:06;18.60;55.30
53978;DHT22;39886;47.984;-1.586;2024-02-28T04:44:32;18.60;55.20
53978;DHT22;39886;47.984;-1.586;2024-02-28T04:46:57;18.70;55.10
53978;DHT22;39886;47.984;-1.586;2024-02-28T04:49:23;18.80;55.00
53978;DHT22;39886;47.984;-1.586;2024-02-28T04:51:49;18.80;54.90
53978;DHT22;39886;47.984;-1.586;2024-02-28T04:54:14;18.90;54.80
53978;DHT22;39886;47.984;-1.586;2024-02-28T04:56:40;19.00;54.70
53978;DHT22;39886;47.984;-1.586;2024-02-28T04:59:07;19.00;54.60
53978;DHT22;39886;47.984;-1.586;2024-02-28T05:01:33;19.10;54.60
53978;DHT22;39886;47.984;-1.586;2024-02-28T05:04:00;19.10;54.40
53978;DHT22;39886;47.984;-1.586;2024-02-28T05:06:26;19.20;54.50
53978;DHT22;39886;47.984;-1.586;2024-02-28T05:08:52;19.20;54.40
53978;DHT22;39886;47.984;-1.586;2024-02-28T05:11:18;19.30;54.30
53978;DHT22;39886;47.984;-1.586;2024-02-28T05:13:43;19.30;54.20
53978;DHT22;39886;47.984;-1.586;2024-02-28T05:16:13;19.40;54.20
53978;DHT22;39886;47.984;-1.586;2024-02-28T05:18:39;19.40;54.10
53978;DHT22;39886;47.984;-1.586;2024-02-28T05:21:05;19.50;54.20
53978;DHT22;39886;47.984;-1.586;2024-02-28T05:23:30;19.50;54.10
53978;DHT22;39886;47.984;-1.586;2024-02-28T05:25:56;19.50;54.00
53978;DHT22;39886;47.984;-1.586;2024-02-28T05:28:23;19.60;54.00
53978;DHT22;39886;47.984;-1.586;2024-02-28T05:30:49;19.60;53.90
53978;DHT22;39886;47.984;-1.586;2024-02-28T05:33:15;19.60;53.90
53978;DHT22;39886;47.984;-1.586;2024-02-28T05:35:41;19.60;53.80
53978;DHT22;39886;47.984;-1.586;2024-02-28T05:38:06;19.70;53.80
53978;DHT22;39886;47.984;-1.586;2024-02-28T05:40:32;19.70;53.80
53978;DHT22;39886;47.984;-1.586;2024-02-28T05:42:58;19.80;53.70
53978;DHT22;39886;47.984;-1.586;2024-02-28T05:45:24;19.80;53.70
53978;DHT22;39886;47.984;-1.586;2024-02-28T05:47:49;19.80;53.70
53978;DHT22;39886;47.984;-1.586;2024-02-28T05:50:15;19.80;53.70
53978;DHT22;39886;47.984;-1.586;2024-02-28T05:52:44;19.90;53.60
53978;DHT22;39886;47.984;-1.586;2024-02-28T05:55:09;19.90;53.60
53978;DHT22;39886;47.984;-1.586;2024-02-28T05:57:35;19.90;53.60
53978;DHT22;39886;47.984;-1.586;2024-02-28T06:00:01;20.00;53.70
53978;DHT22;39886;47.984;-1.586;2024-02-28T06:02:38;19.90;53.60
53978;DHT22;39886;47.984;-1.586;2024-02-28T06:05:04;20.00;53.60
53978;DHT22;39886;47.984;-1.586;2024-02-28T06:07:30;20.00;53.60
53978;DHT22;39886;47.984;-1.586;2024-02-28T06:09:56;20.00;53.50
53978;DHT22;39886;47.984;-1.586;2024-02-28T06:12:22;20.10;53.60
53978;DHT22;39886;47.984;-1.586;2024-02-28T06:14:48;20.10;53.60
53978;DHT22;39886;47.984;-1.586;2024-02-28T06:17:13;20.10;53.50
53978;DHT22;39886;47.984;-1.586;2024-02-28T06:19:39;20.10;53.50
53978;DHT22;39886;47.984;-1.586;2024-02-28T06:22:05;20.20;53.50
53978;DHT22;39886;47.984;-1.586;2024-02-28T06:24:34;20.20;53.50
53978;DHT22;39886;47.984;-1.586;2024-02-28T06:27:00;20.20;53.40
53978;DHT22;39886;47.984;-1.586;2024-02-28T06:29:25;20.20;53.40
53978;DHT22;39886;47.984;-1.586;2024-02-28T06:31:51;20.20;53.40
53978;DHT22;39886;47.984;-1.586;2024-02-28T06:34:17;20.30;53.40
53978;DHT22;39886;47.984;-1.586;2024-02-28T06:36:44;20.30;53.40
53978;DHT22;39886;47.984;-1.586;2024-02-28T06:39:10;20.30;53.30
53978;DHT22;39886;47.984;-1.586;2024-02-28T06:41:35;20.30;53.30
53978;DHT22;39886;47.984;-1.586;2024-02-28T06:44:01;20.40;53.30
53978;DHT22;39886;47.984;-1.586;2024-02-28T06:46:27;20.40;53.30
53978;DHT22;39886;47.984;-1.586;2024-02-28T06:48:52;20.40;53.30
53978;DHT22;39886;47.984;-1.586;2024-02-28T06:51:18;20.40;53.30
53978;DHT22;39886;47.984;-1.586;2024-02-28T06:53:44;20.40;53.30
53978;DHT22;39886;47.984;-1.586;2024-02-28T06:56:10;20.40;53.20
53978;DHT22;39886;47.984;-1.586;2024-02-28T06:58:36;20.40;53.30
53978;DHT22;39886;47.984;-1.586;2024-02-28T07:01:02;20.50;53.30
53978;DHT22;39886;47.984;-1.586;2024-02-28T07:03:28;20.50;53.20
53978;DHT22;39886;47.984;-1.586;2024-02-28T07:05:54;20.50;53.20
53978;DHT22;39886;47.984;-1.586;2024-02-28T07:08:20;20.60;53.30
53978;DHT22;39886;47.984;-1.586;2024-02-28T07:10:46;20.60;53.20
53978;DHT22;39886;47.984;-1.586;2024-02-28T07:13:19;20.50;53.20
53978;DHT22;39886;47.984;-1.586;2024-02-28T07:15:45;20.50;53.40
53978;DHT22;39886;47.984;-1.586;2024-02-28T07:18:11;20.50;53.40
53978;DHT22;39886;47.984;-1.586;2024-02-28T07:20:37;20.50;53.50
53978;DHT22;39886;47.984;-1.586;2024-02-28T07:23:02;20.50;53.40
53978;DHT22;39886;47.984;-1.586;2024-02-28T07:25:28;20.60;53.30
53978;DHT22;39886;47.984;-1.586;2024-02-28T07:27:57;20.60;53.40
53978;DHT22;39886;47.984;-1.586;2024-02-28T07:30:24;20.60;53.40
53978;DHT22;39886;47.984;-1.586;2024-02-28T07:32:50;20.60;53.50
53978;DHT22;39886;47.984;-1.586;2024-02-28T07:35:16;20.60;53.60
53978;DHT22;39886;47.984;-1.586;2024-02-28T07:37:41;20.70;53.60
53978;DHT22;39886;47.984;-1.586;2024-02-28T07:40:07;20.70;53.80
53978;DHT22;39886;47.984;-1.586;2024-02-28T07:42:33;20.80;53.60
53978;DHT22;39886;47.984;-1.586;2024-02-28T07:45:00;20.80;53.70
53978;DHT22;39886;47.984;-1.586;2024-02-28T07:47:26;20.90;53.80
53978;DHT22;39886;47.984;-1.586;2024-02-28T07:49:52;20.90;54.10
53978;DHT22;39886;47.984;-1.586;2024-02-28T07:52:19;21.00;54.20
53978;DHT22;39886;47.984;-1.586;2024-02-28T07:54:45;21.00;54.40
53978;DHT22;39886;47.984;-1.586;2024-02-28T07:57:11;21.00;54.30
53978;DHT22;39886;47.984;-1.586;2024-02-28T07:59:44;21.10;54.70
53978;DHT22;39886;47.984;-1.586;2024-02-28T08:02:10;21.10;55.00
53978;DHT22;39886;47.984;-1.586;2024-02-28T08:04:39;21.10;55.40
53978;DHT22;39886;47.984;-1.586;2024-02-28T08:07:05;21.20;55.70
53978;DHT22;39886;47.984;-1.586;2024-02-28T08:09:31;21.20;56.40
53978;DHT22;39886;47.984;-1.586;2024-02-28T08:11:57;21.30;56.30
53978;DHT22;39886;47.984;-1.586;2024-02-28T08:14:24;21.40;56.70
53978;DHT22;39886;47.984;-1.586;2024-02-28T08:16:50;21.40;56.70
53978;DHT22;39886;47.984;-1.586;2024-02-28T08:19:16;21.50;56.70
53978;DHT22;39886;47.984;-1.586;2024-02-28T08:21:42;21.50;56.50
53978;DHT22;39886;47.984;-1.586;2024-02-28T08:24:08;21.50;56.60
53978;DHT22;39886;47.984;-1.586;2024-02-28T08:26:34;21.60;57.00
53978;DHT22;39886;47.984;-1.586;2024-02-28T08:29:01;21.60;57.50
53978;DHT22;39886;47.984;-1.586;2024-02-28T08:31:28;21.70;58.40
53978;DHT22;39886;47.984;-1.586;2024-02-28T08:33:53;21.80;57.10
53978;DHT22;39886;47.984;-1.586;2024-02-28T08:36:21;21.80;57.00
53978;DHT22;39886;47.984;-1.586;2024-02-28T08:38:46;21.90;57.10
53978;DHT22;39886;47.984;-1.586;2024-02-28T08:41:12;22.00;57.80
53978;DHT22;39886;47.984;-1.586;2024-02-28T08:43:39;22.00;57.40
53978;DHT22;39886;47.984;-1.586;2024-02-28T08:46:05;22.10;57.10
53978;DHT22;39886;47.984;-1.586;2024-02-28T08:48:31;22.20;57.40
53978;DHT22;39886;47.984;-1.586;2024-02-28T08:50:57;22.20;57.80
53978;DHT22;39886;47.984;-1.586;2024-02-28T08:53:23;22.30;57.60
53978;DHT22;39886;47.984;-1.586;2024-02-28T08:55:49;22.30;57.30
53978;DHT22;39886;47.984;-1.586;2024-02-28T08:58:14;22.30;57.50
53978;DHT22;39886;47.984;-1.586;2024-02-28T09:00:40;22.30;57.50
53978;DHT22;39886;47.984;-1.586;2024-02-28T09:03:06;22.40;57.50
53978;DHT22;39886;47.984;-1.586;2024-02-28T09:05:31;22.50;57.00
53978;DHT22;39886;47.984;-1.586;2024-02-28T09:07:57;22.40;57.10
53978;DHT22;39886;47.984;-1.586;2024-02-28T09:10:23;22.40;57.20
53978;DHT22;39886;47.984;-1.586;2024-02-28T09:12:53;22.30;57.10
53978;DHT22;39886;47.984;-1.586;2024-02-28T09:15:19;22.20;58.00
53978;DHT22;39886;47.984;-1.586;2024-02-28T09:17:45;22.00;58.30
53978;DHT22;39886;47.984;-1.586;2024-02-28T09:20:11;21.90;58.60
53978;DHT22;39886;47.984;-1.586;2024-02-28T09:22:38;21.80;59.00
53978;DHT22;39886;47.984;-1.586;2024-02-28T09:25:04;21.70;58.90
53978;DHT22;39886;47.984;-1.586;2024-02-28T09:27:30;21.70;59.00
53978;DHT22;39886;47.984;-1.586;2024-02-28T09:29:56;21.60;59.20
53978;DHT22;39886;47.984;-1.586;2024-02-28T09:32:22;21.60;59.30
53978;DHT22;39886;47.984;-1.586;2024-02-28T09:34:48;21.50;59.40
53978;DHT22;39886;47.984;-1.586;2024-02-28T09:37:15;21.40;59.90
53978;DHT22;39886;47.984;-1.586;2024-02-28T09:39:42;21.30;59.80
53978;DHT22;39886;47.984;-1.586;2024-02-28T09:42:09;21.30;59.80
53978;DHT22;39886;47.984;-1.586;2024-02-28T09:44:37;21.20;59.80
53978;DHT22;39886;47.984;-1.586;2024-02-28T09:47:03;21.20;60.00
53978;DHT22;39886;47.984;-1.586;2024-02-28T09:49:31;21.10;60.40
53978;DHT22;39886;47.984;-1.586;2024-02-28T09:51:58;21.10;60.50
53978;DHT22;39886;47.984;-1.586;2024-02-28T09:54:25;21.10;60.70
53978;DHT22;39886;47.984;-1.586;2024-02-28T09:56:51;21.10;60.80
53978;DHT22;39886;47.984;-1.586;2024-02-28T09:59:18;21.00;60.90
53978;DHT22;39886;47.984;-1.586;2024-02-28T10:01:53;20.90;60.90
53978;DHT22;39886;47.984;-1.586;2024-02-28T10:04:19;20.90;60.70
53978;DHT22;39886;47.984;-1.586;2024-02-28T10:06:46;20.90;60.70
53978;DHT22;39886;47.984;-1.586;2024-02-28T10:09:14;20.90;60.80
53978;DHT22;39886;47.984;-1.586;2024-02-28T10:11:41;20.90;61.50
53978;DHT22;39886;47.984;-1.586;2024-02-28T10:14:09;20.80;61.50
53978;DHT22;39886;47.984;-1.586;2024-02-28T10:16:35;20.80;61.60
53978;DHT22;39886;47.984;-1.586;2024-02-28T10:19:00;20.80;61.70
53978;DHT22;39886;47.984;-1.586;2024-02-28T10:21:26;20.80;61.80
53978;DHT22;39886;47.984;-1.586;2024-02-28T10:23:52;20.70;61.80
53978;DHT22;39886;47.984;-1.586;2024-02-28T10:26:18;20.70;61.90
53978;DHT22;39886;47.984;-1.586;2024-02-28T10:28:44;20.80;62.00
53978;DHT22;39886;47.984;-1.586;2024-02-28T10:31:10;20.90;61.80
53978;DHT22;39886;47.984;-1.586;2024-02-28T10:33:37;21.00;61.50
53978;DHT22;39886;47.984;-1.586;2024-02-28T10:36:04;21.10;61.20
53978;DHT22;39886;47.984;-1.586;2024-02-28T10:38:31;21.30;61.20
53978;DHT22;39886;47.984;-1.586;2024-02-28T10:41:03;21.40;61.10
53978;DHT22;39886;47.984;-1.586;2024-02-28T10:43:29;21.50;61.10
53978;DHT22;39886;47.984;-1.586;2024-02-28T10:45:58;21.60;61.30
53978;DHT22;39886;47.984;-1.586;2024-02-28T10:48:25;21.60;61.50
53978;DHT22;39886;47.984;-1.586;2024-02-28T10:50:51;21.70;61.00
53978;DHT22;39886;47.984;-1.586;2024-02-28T10:53:22;21.80;61.40
53978;DHT22;39886;47.984;-1.586;2024-02-28T10:55:51;21.90;61.10
53978;DHT22;39886;47.984;-1.586;2024-02-28T10:58:22;21.90;61.20
53978;DHT22;39886;47.984;-1.586;2024-02-28T11:00:50;22.00;61.40
53978;DHT22;39886;47.984;-1.586;2024-02-28T11:03:17;22.00;61.50
53978;DHT22;39886;47.984;-1.586;2024-02-28T11:05:44;22.20;61.70
53978;DHT22;39886;47.984;-1.586;2024-02-28T11:08:24;22.20;60.60
53978;DHT22;39886;47.984;-1.586;2024-02-28T11:11:02;22.30;60.40
53978;DHT22;39886;47.984;-1.586;2024-02-28T11:13:31;22.20;61.00
53978;DHT22;39886;47.984;-1.586;2024-02-28T11:16:09;22.00;61.00
53978;DHT22;39886;47.984;-1.586;2024-02-28T11:18:35;21.90;61.40
53978;DHT22;39886;47.984;-1.586;2024-02-28T11:21:01;21.80;61.40
53978;DHT22;39886;47.984;-1.586;2024-02-28T11:23:38;21.80;61.60
53978;DHT22;39886;47.984;-1.586;2024-02-28T11:26:04;21.70;61.90
53978;DHT22;39886;47.984;-1.586;2024-02-28T11:28:29;21.70;62.00
53978;DHT22;39886;47.984;-1.586;2024-02-28T11:30:55;21.60;62.10
53978;DHT22;39886;47.984;-1.586;2024-02-28T11:33:21;21.50;62.20
53978;DHT22;39886;47.984;-1.586;2024-02-28T11:35:59;21.40;62.50
53978;DHT22;39886;47.984;-1.586;2024-02-28T11:38:25;21.40;62.40
53978;DHT22;39886;47.984;-1.586;2024-02-28T11:40:52;21.30;62.60
53978;DHT22;39886;47.984;-1.586;2024-02-28T11:43:18;21.30;62.60
53978;DHT22;39886;47.984;-1.586;2024-02-28T11:45:44;21.20;62.70
53978;DHT22;39886;47.984;-1.586;2024-02-28T11:48:15;21.20;62.80
53978;DHT22;39886;47.984;-1.586;2024-02-28T11:50:42;21.20;62.90
53978;DHT22;39886;47.984;-1.586;2024-02-28T11:53:08;21.10;62.90
53978;DHT22;39886;47.984;-1.586;2024-02-28T11:55:34;21.10;63.00
53978;DHT22;39886;47.984;-1.586;2024-02-28T11:57:59;21.00;63.70
53978;DHT22;39886;47.984;-1.586;2024-02-28T12:00:26;21.00;63.10
53978;DHT22;39886;47.984;-1.586;2024-02-28T12:02:52;20.90;63.10
53978;DHT22;39886;47.984;-1.586;2024-02-28T12:05:19;20.90;63.20
53978;DHT22;39886;47.984;-1.586;2024-02-28T12:07:45;20.90;63.10
53978;DHT22;39886;47.984;-1.586;2024-02-28T12:10:11;20.80;63.20
53978;DHT22;39886;47.984;-1.586;2024-02-28T12:12:39;20.80;63.20
53978;DHT22;39886;47.984;-1.586;2024-02-28T12:15:05;20.80;63.20
53978;DHT22;39886;47.984;-1.586;2024-02-28T12:17:31;20.80;63.30
53978;DHT22;39886;47.984;-1.586;2024-02-28T12:20:00;20.70;63.30
53978;DHT22;39886;47.984;-1.586;2024-02-28T12:22:26;20.70;63.30
53978;DHT22;39886;47.984;-1.586;2024-02-28T12:24:52;20.70;63.40
53978;DHT22;39886;47.984;-1.586;2024-02-28T12:27:18;20.70;63.30
53978;DHT22;39886;47.984;-1.586;2024-02-28T12:29:44;20.70;63.40
53978;DHT22;39886;47.984;-1.586;2024-02-28T12:32:10;20.70;63.40
53978;DHT22;39886;47.984;-1.586;2024-02-28T12:34:36;20.70;63.40
53978;DHT22;39886;47.984;-1.586;2024-02-28T12:37:02;20.70;63.60
53978;DHT22;39886;47.984;-1.586;2024-02-28T12:39:29;20.60;63.60
53978;DHT22;39886;47.984;-1.586;2024-02-28T12:41:55;20.60;63.70
53978;DHT22;39886;47.984;-1.586;2024-02-28T12:44:20;20.60;63.70
53978;DHT22;39886;47.984;-1.586;2024-02-28T12:46:46;20.60;63.80
53978;DHT22;39886;47.984;-1.586;2024-02-28T12:49:12;20.60;63.90
53978;DHT22;39886;47.984;-1.586;2024-02-28T12:51:43;20.60;64.20
53978;DHT22;39886;47.984;-1.586;2024-02-28T12:54:10;20.60;64.30
53978;DHT22;39886;47.984;-1.586;2024-02-28T12:56:36;20.60;64.40
53978;DHT22;39886;47.984;-1.586;2024-02-28T12:59:03;20.60;64.50
53978;DHT22;39886;47.984;-1.586;2024-02-28T13:01:29;20.60;64.50
53978;DHT22;39886;47.984;-1.586;2024-02-28T13:03:55;20.70;64.80
53978;DHT22;39886;47.984;-1.586;2024-02-28T13:06:21;20.70;64.80
53978;DHT22;39886;47.984;-1.586;2024-02-28T13:08:47;20.70;65.00
53978;DHT22;39886;47.984;-1.586;2024-02-28T13:11:21;20.60;64.90
53978;DHT22;39886;47.984;-1.586;2024-02-28T13:13:48;20.60;65.10
53978;DHT22;39886;47.984;-1.586;2024-02-28T13:16:17;20.60;65.30
53978;DHT22;39886;47.984;-1.586;2024-02-28T13:18:44;20.60;65.10
53978;DHT22;39886;47.984;-1.586;2024-02-28T13:21:10;20.70;65.50
53978;DHT22;39886;47.984;-1.586;2024-02-28T13:23:36;20.70;65.50
53978;DHT22;39886;47.984;-1.586;2024-02-28T13:26:06;20.70;65.50
53978;DHT22;39886;47.984;-1.586;2024-02-28T13:28:33;20.60;65.70
53978;DHT22;39886;47.984;-1.586;2024-02-28T13:31:03;20.70;65.80
53978;DHT22;39886;47.984;-1.586;2024-02-28T13:33:31;20.70;65.90
53978;DHT22;39886;47.984;-1.586;2024-02-28T13:35:57;20.70;65.90
53978;DHT22;39886;47.984;-1.586;2024-02-28T13:38:22;20.70;66.10
53978;DHT22;39886;47.984;-1.586;2024-02-28T13:40:49;20.60;66.20
53978;DHT22;39886;47.984;-1.586;2024-02-28T13:43:15;20.60;66.20
53978;DHT22;39886;47.984;-1.586;2024-02-28T13:45:46;20.60;66.30
53978;DHT22;39886;47.984;-1.586;2024-02-28T13:50:42;20.60;66.50
53978;DHT22;39886;47.984;-1.586;2024-02-28T13:53:08;20.60;66.50
53978;DHT22;39886;47.984;-1.586;2024-02-28T13:55:34;20.70;66.40
53978;DHT22;39886;47.984;-1.586;2024-02-28T13:57:59;20.70;66.50
53978;DHT22;39886;47.984;-1.586;2024-02-28T14:00:25;20.70;66.80
53978;DHT22;39886;47.984;-1.586;2024-02-28T14:02:51;20.70;66.90
53978;DHT22;39886;47.984;-1.586;2024-02-28T14:05:17;20.70;66.90
53978;DHT22;39886;47.984;-1.586;2024-02-28T14:07:42;20.60;67.00
53978;DHT22;39886;47.984;-1.586;2024-02-28T14:10:08;20.70;66.90
53978;DHT22;39886;47.984;-1.586;2024-02-28T14:12:37;20.70;67.20
53978;DHT22;39886;47.984;-1.586;2024-02-28T14:15:04;20.70;67.00
53978;DHT22;39886;47.984;-1.586;2024-02-28T14:17:30;20.70;67.10
53978;DHT22;39886;47.984;-1.586;2024-02-28T14:19:56;20.70;67.20
53978;DHT22;39886;47.984;-1.586;2024-02-28T14:22:22;20.70;67.40
53978;DHT22;39886;47.984;-1.586;2024-02-28T14:24:47;20.70;67.20
53978;DHT22;39886;47.984;-1.586;2024-02-28T14:27:13;20.60;67.20
53978;DHT22;39886;47.984;-1.586;2024-02-28T14:29:40;20.70;67.40
53978;DHT22;39886;47.984;-1.586;2024-02-28T14:32:06;20.70;67.60
53978;DHT22;39886;47.984;-1.586;2024-02-28T14:34:32;20.60;67.70
53978;DHT22;39886;47.984;-1.586;2024-02-28T14:36:58;20.70;67.80
53978;DHT22;39886;47.984;-1.586;2024-02-28T14:39:24;20.70;67.90
53978;DHT22;39886;47.984;-1.586;2024-02-28T14:41:49;20.70;67.50
53978;DHT22;39886;47.984;-1.586;2024-02-28T14:44:15;20.60;67.60
53978;DHT22;39886;47.984;-1.586;2024-02-28T14:46:42;20.60;67.80
53978;DHT22;39886;47.984;-1.586;2024-02-28T14:49:09;20.60;67.50
53978;DHT22;39886;47.984;-1.586;2024-02-28T14:51:35;20.60;67.90
53978;DHT22;39886;47.984;-1.586;2024-02-28T14:54:01;20.60;68.20
53978;DHT22;39886;47.984;-1.586;2024-02-28T14:56:27;20.60;68.10
53978;DHT22;39886;47.984;-1.586;2024-02-28T14:58:55;20.60;68.20
53978;DHT22;39886;47.984;-1.586;2024-02-28T15:01:22;20.60;68.10
53978;DHT22;39886;47.984;-1.586;2024-02-28T15:03:50;20.60;68.20
53978;DHT22;39886;47.984;-1.586;2024-02-28T15:06:16;20.60;68.50
53978;DHT22;39886;47.984;-1.586;2024-02-28T15:08:41;20.60;68.50
53978;DHT22;39886;47.984;-1.586;2024-02-28T15:11:08;20.60;68.60
53978;DHT22;39886;47.984;-1.586;2024-02-28T15:13:33;20.60;68.60
53978;DHT22;39886;47.984;-1.586;2024-02-28T15:15:59;20.60;68.60
53978;DHT22;39886;47.984;-1.586;2024-02-28T15:18:25;20.60;68.90
53978;DHT22;39886;47.984;-1.586;2024-02-28T15:20:51;20.60;68.90
53978;DHT22;39886;47.984;-1.586;2024-02-28T15:23:19;20.60;68.90
53978;DHT22;39886;47.984;-1.586;2024-02-28T15:25:47;20.50;68.90